Time;durP1;ratioP1;P1;durP2;ratioP2;P2;SDS_P1;SDS_P2;PMS_P1;PMS_P2;Temp;Humidity;BMP_temperature;BMP_pressure;BME280_temperature;BME280_humidity;BME280_pressure;Samples;Min_cycle;Max_cycle;Signal;HPM_P1;HPM_P2
2021/09/11 00:02:25;;;;;;;14.85;13.18;;;20.00;76.80;;;;;;4998868;28;20548;-68
2021/09/11 00:04:50;;;;;;;16.15;13.27;;;19.90;77.00;;;;;;5001049;28;20038;-68
2021/09/11 00:07:16;;;;;;;14.55;13.00;;;20.00;77.20;;;;;;4998996;28;20035;-69
2021/09/11 00:09:42;;;;;;;14.30;12.90;;;19.90;77.10;;;;;;4999038;28;20040;-68
2021/09/11 00:12:09;;;;;;;14.25;12.73;;;19.90;77.20;;;;;;4997175;28;20038;-68
2021/09/11 00:14:36;;;;;;;15.75;13.82;;;19.90;77.30;;;;;;4999960;28;20038;-68
2021/09/11 00:17:02;;;;;;;14.10;12.65;;;19.90;77.40;;;;;;5000812;28;20033;-68
2021/09/11 00:19:28;;;;;;;15.63;12.30;;;19.90;77.40;;;;;;5000490;28;20598;-69
2021/09/11 00:21:54;;;;;;;13.13;11.82;;;19.90;77.30;;;;;;5000102;28;20057;-68
2021/09/11 00:24:20;;;;;;;13.45;12.05;;;19.90;77.30;;;;;;5000410;28;20034;-67
2021/09/11 00:26:45;;;;;;;14.65;11.82;;;19.90;77.30;;;;;;5000591;28;20034;-68
2021/09/11 00:29:11;;;;;;;13.10;11.80;;;19.90;77.20;;;;;;5001041;28;20074;-67
2021/09/11 00:31:37;;;;;;;12.13;10.70;;;19.90;77.00;;;;;;5000686;28;20042;-70
2021/09/11 00:34:02;;;;;;;12.15;10.85;;;19.90;76.80;;;;;;5000531;28;20471;-68
2021/09/11 00:36:29;;;;;;;12.25;10.45;;;19.90;76.70;;;;;;4999662;28;20042;-68
2021/09/11 00:38:54;;;;;;;10.88;9.82;;;19.80;76.50;;;;;;5001195;28;20084;-68
2021/09/11 00:41:20;;;;;;;11.20;10.00;;;19.80;76.50;;;;;;4999873;28;20499;-68
2021/09/11 00:43:50;;;;;;;10.75;9.65;;;19.80;76.60;;;;;;5000129;28;20042;-68
2021/09/11 00:46:16;;;;;;;10.57;9.48;;;19.70;76.80;;;;;;5000701;28;20045;-68
2021/09/11 00:48:43;;;;;;;11.85;10.73;;;19.70;76.50;;;;;;5000397;28;20037;-68
2021/09/11 00:51:09;;;;;;;10.57;9.52;;;19.70;76.70;;;;;;5000491;28;20047;-68
2021/09/11 00:53:35;;;;;;;10.82;9.73;;;19.60;76.60;;;;;;4999407;28;20041;-68
2021/09/11 00:56:01;;;;;;;10.35;9.32;;;19.60;76.80;;;;;;4999972;28;20034;-68
2021/09/11 00:58:28;;;;;;;11.55;9.85;;;19.50;76.90;;;;;;4999521;28;20046;-68
2021/09/11 01:00:53;;;;;;;10.80;9.73;;;19.50;77.10;;;;;;5002882;28;20548;-67
2021/09/11 01:03:19;;;;;;;10.10;9.10;;;19.50;77.10;;;;;;4998699;28;20114;-66
2021/09/11 01:05:45;;;;;;;10.35;9.35;;;19.50;77.00;;;;;;5015003;28;20053;-68
2021/09/11 01:08:11;;;;;;;9.65;8.70;;;19.40;77.00;;;;;;4998897;28;20030;-68
2021/09/11 01:10:38;;;;;;;10.52;9.27;;;19.40;77.00;;;;;;4999122;28;20034;-68
2021/09/11 01:13:04;;;;;;;9.55;8.65;;;19.40;77.20;;;;;;4999253;28;20556;-68
2021/09/11 01:15:34;;;;;;;9.90;8.88;;;19.40;77.30;;;;;;4998017;28;20121;-68
2021/09/11 01:18:01;;;;;;;8.68;7.88;;;19.30;77.60;;;;;;4999808;28;20034;-68
2021/09/11 01:20:27;;;;;;;9.18;8.25;;;19.40;77.30;;;;;;4997511;28;20038;-67
2021/09/11 01:22:52;;;;;;;9.15;8.30;;;19.30;77.30;;;;;;4999608;28;20100;-68
2021/09/11 01:25:18;;;;;;;8.93;8.02;;;19.30;77.40;;;;;;5000228;28;20031;-68
2021/09/11 01:27:44;;;;;;;9.00;7.40;;;19.30;77.40;;;;;;4999183;28;20026;-67
2021/09/11 01:30:15;;;;;;;8.65;7.43;;;19.30;77.40;;;;;;4999777;28;20076;-68
2021/09/11 01:32:41;;;;;;;8.02;7.13;;;19.30;77.70;;;;;;4996367;28;20053;-68
2021/09/11 01:35:08;;;;;;;7.70;7.00;;;19.30;77.50;;;;;;4999405;28;20097;-67
2021/09/11 01:37:34;;;;;;;7.78;6.97;;;19.30;77.30;;;;;;4999619;28;20100;-68
2021/09/11 01:40:01;;;;;;;7.50;6.80;;;19.30;77.20;;;;;;4999612;28;20116;-67
2021/09/11 01:42:27;;;;;;;7.55;6.85;;;19.20;77.10;;;;;;4998970;28;20073;-68
2021/09/11 01:44:58;;;;;;;7.68;6.97;;;19.20;77.40;;;;;;4999606;28;20038;-67
2021/09/11 01:47:24;;;;;;;7.93;7.13;;;19.20;77.50;;;;;;4999419;28;20030;-68
2021/09/11 01:49:50;;;;;;;7.60;6.38;;;19.10;77.40;;;;;;4998958;28;20045;-68
2021/09/11 01:52:16;;;;;;;7.13;6.53;;;19.10;77.40;;;;;;4998669;28;20029;-68
2021/09/11 01:54:42;;;;;;;7.80;7.00;;;19.00;77.50;;;;;;4999360;28;20041;-68
2021/09/11 01:57:12;;;;;;;7.60;6.90;;;19.00;77.70;;;;;;4999777;28;20108;-67
2021/09/11 01:59:39;;;;;;;7.10;6.45;;;19.00;78.00;;;;;;4998153;28;20036;-68
2021/09/11 02:02:07;;;;;;;7.85;6.82;;;19.00;77.80;;;;;;4998885;28;20516;-68
2021/09/11 02:04:33;;;;;;;7.40;6.70;;;18.90;77.70;;;;;;4998546;28;20497;-67
2021/09/11 02:06:58;;;;;;;7.20;6.55;;;18.90;77.90;;;;;;4999364;28;20043;-67
2021/09/11 02:09:24;;;;;;;7.30;6.60;;;18.90;78.00;;;;;;4998979;28;20429;-68
2021/09/11 02:11:51;;;;;;;8.27;7.05;;;18.90;78.00;;;;;;4999067;28;20050;-66
2021/09/11 02:14:17;;;;;;;8.00;7.28;;;18.90;79.20;;;;;;4998855;28;20578;-68
2021/09/11 02:16:42;;;;;;;7.40;6.65;;;18.90;78.30;;;;;;4998948;28;20050;-68
2021/09/11 02:19:08;;;;;;;7.80;7.00;;;18.90;78.40;;;;;;4998299;28;20084;-69
2021/09/11 02:21:33;;;;;;;8.20;7.40;;;18.90;78.40;;;;;;4997300;28;20104;-68
2021/09/11 02:23:59;;;;;;;7.55;6.85;;;18.90;78.60;;;;;;5012642;28;20559;-68
2021/09/11 02:26:25;;;;;;;7.03;6.32;;;18.80;78.40;;;;;;4998347;28;20041;-67
2021/09/11 02:28:51;;;;;;;7.30;6.60;;;18.80;78.40;;;;;;4998811;28;20045;-68
2021/09/11 02:31:18;;;;;;;7.32;6.57;;;18.80;78.40;;;;;;4998774;28;20045;-68
2021/09/11 02:33:43;;;;;;;8.15;6.32;;;18.90;78.40;;;;;;5003146;28;20132;-68
2021/09/11 02:36:09;;;;;;;7.93;6.47;;;18.80;78.40;;;;;;5001654;28;20183;-68
2021/09/11 02:38:35;;;;;;;6.72;6.18;;;18.80;78.30;;;;;;5001669;28;20037;-67
2021/09/11 02:41:01;;;;;;;6.55;6.03;;;18.90;78.40;;;;;;5002793;28;20501;-68
2021/09/11 02:43:27;;;;;;;7.28;6.57;;;18.90;78.40;;;;;;5002626;28;20038;-68
2021/09/11 02:45:52;;;;;;;6.88;6.22;;;18.80;78.40;;;;;;5002803;28;20034;-67
2021/09/11 02:48:18;;;;;;;7.60;6.68;;;18.80;78.40;;;;;;5002691;28;20129;-67
2021/09/11 02:50:44;;;;;;;7.20;6.50;;;18.90;78.40;;;;;;5004427;28;20053;-68
2021/09/11 02:53:10;;;;;;;7.43;6.75;;;18.90;78.40;;;;;;5001589;28;20042;-68
2021/09/11 02:55:36;;;;;;;7.28;6.57;;;18.90;78.30;;;;;;5002353;28;20037;-68
2021/09/11 02:58:01;;;;;;;7.30;6.63;;;18.90;78.20;;;;;;5002532;28;20134;-67
2021/09/11 03:00:27;;;;;;;7.28;6.55;;;18.90;78.30;;;;;;5001426;28;20138;-68
2021/09/11 03:02:52;;;;;;;6.88;6.22;;;18.90;78.10;;;;;;5002068;28;20133;-68
2021/09/11 03:05:18;;;;;;;6.60;6.00;;;18.90;78.10;;;;;;5001356;28;20401;-67
2021/09/11 03:07:44;;;;;;;7.90;7.07;;;18.90;78.00;;;;;;5001715;28;20034;-67
2021/09/11 03:10:10;;;;;;;7.22;6.53;;;18.80;78.00;;;;;;5000122;28;20117;-68
2021/09/11 03:12:35;;;;;;;7.22;6.18;;;18.80;78.20;;;;;;5001645;28;20030;-67
2021/09/11 03:15:01;;;;;;;6.95;6.28;;;18.80;78.40;;;;;;5016361;28;20030;-68
2021/09/11 03:17:27;;;;;;;7.88;6.47;;;18.80;78.50;;;;;;5002096;28;20039;-68
2021/09/11 03:19:52;;;;;;;7.28;6.38;;;18.80;78.60;;;;;;5002264;28;20631;-69
2021/09/11 03:22:18;;;;;;;6.85;6.25;;;18.70;78.50;;;;;;5001008;28;20128;-68
2021/09/11 03:24:43;;;;;;;7.10;6.40;;;18.70;78.50;;;;;;5002711;28;20041;-67
2021/09/11 03:27:09;;;;;;;6.70;6.00;;;18.70;78.50;;;;;;5001190;28;20468;-67
2021/09/11 03:29:35;;;;;;;6.68;6.07;;;18.70;78.60;;;;;;5002876;28;20077;-68
2021/09/11 03:32:00;;;;;;;7.32;6.63;;;18.70;78.60;;;;;;5001332;28;20038;-67
2021/09/11 03:34:26;;;;;;;7.38;6.68;;;18.70;78.70;;;;;;5001943;28;20120;-67
2021/09/11 03:36:51;;;;;;;7.18;6.47;;;18.70;78.70;;;;;;5001694;28;20048;-66
2021/09/11 03:39:17;;;;;;;7.30;6.60;;;18.70;78.70;;;;;;5002500;28;20500;-67
2021/09/11 03:41:43;;;;;;;7.60;6.88;;;18.70;78.80;;;;;;5003197;28;20249;-68
2021/09/11 03:44:09;;;;;;;7.47;6.78;;;18.60;78.80;;;;;;5001240;28;20035;-68
2021/09/11 03:46:35;;;;;;;7.35;6.65;;;18.60;78.70;;;;;;5000823;28;20030;-68
2021/09/11 03:49:00;;;;;;;8.30;6.88;;;18.60;78.70;;;;;;5001464;28;20436;-68
2021/09/11 03:51:26;;;;;;;7.30;6.60;;;18.70;78.70;;;;;;5017832;28;20058;-67
2021/09/11 03:53:52;;;;;;;7.38;6.70;;;18.70;78.70;;;;;;5001254;28;20034;-69
2021/09/11 03:56:17;;;;;;;7.25;6.57;;;18.70;78.60;;;;;;4999967;28;20050;-69
2021/09/11 03:58:43;;;;;;;7.10;6.40;;;18.70;78.50;;;;;;5001625;28;20046;-67
2021/09/11 04:01:08;;;;;;;7.90;7.20;;;18.70;78.60;;;;;;5001435;28;20040;-68
2021/09/11 04:03:35;;;;;;;7.90;7.13;;;18.70;78.60;;;;;;5000569;28;20034;-69
2021/09/11 04:06:00;;;;;;;8.52;7.25;;;18.70;78.60;;;;;;5001530;28;20049;-68
2021/09/11 04:08:30;;;;;;;7.65;6.85;;;18.70;78.50;;;;;;5000985;28;20034;-66
2021/09/11 04:10:56;;;;;;;8.52;7.65;;;18.70;78.50;;;;;;5000855;28;20037;-68
2021/09/11 04:13:21;;;;;;;7.93;7.13;;;18.70;78.60;;;;;;5000348;28;20034;-68
2021/09/11 04:15:47;;;;;;;7.65;6.95;;;18.70;78.60;;;;;;5001302;28;20046;-68
2021/09/11 04:18:13;;;;;;;7.60;6.90;;;18.70;78.60;;;;;;5001006;28;20391;-68
2021/09/11 04:20:38;;;;;;;8.10;7.40;;;18.70;78.60;;;;;;4999636;28;20527;-68
2021/09/11 04:23:04;;;;;;;7.38;6.68;;;18.80;78.50;;;;;;5000074;28;20073;-67
2021/09/11 04:25:29;;;;;;;7.90;7.20;;;18.80;78.40;;;;;;5016491;28;20404;-68
2021/09/11 04:27:55;;;;;;;7.70;7.00;;;18.70;78.20;;;;;;5014760;28;20129;-69
2021/09/11 04:30:21;;;;;;;7.75;6.97;;;18.70;78.20;;;;;;5000691;28;20038;-67
2021/09/11 04:32:46;;;;;;;8.27;7.47;;;18.70;78.30;;;;;;5000105;28;20038;-67
2021/09/11 04:35:12;;;;;;;7.10;6.43;;;18.70;78.30;;;;;;5000120;28;20034;-67
2021/09/11 04:37:37;;;;;;;7.68;6.97;;;18.70;78.30;;;;;;5000228;28;20061;-68
2021/09/11 04:40:04;;;;;;;7.93;7.22;;;18.70;78.30;;;;;;5000608;28;20038;-68
2021/09/11 04:42:29;;;;;;;7.70;6.90;;;18.70;78.30;;;;;;4999787;28;20037;-68
2021/09/11 04:44:55;;;;;;;8.32;7.40;;;18.70;78.30;;;;;;5000633;28;20149;-67
2021/09/11 04:47:20;;;;;;;7.85;7.00;;;18.70;78.20;;;;;;5014971;28;20132;-67
2021/09/11 04:49:46;;;;;;;7.82;7.03;;;18.70;78.20;;;;;;5001064;28;20034;-67
2021/09/11 04:52:12;;;;;;;7.25;6.55;;;18.70;78.20;;;;;;5000091;28;20034;-68
2021/09/11 04:54:37;;;;;;;7.03;6.32;;;18.70;78.30;;;;;;4998801;28;20045;-67
2021/09/11 04:57:03;;;;;;;6.80;6.15;;;18.70;78.40;;;;;;5000519;28;20034;-67
2021/09/11 04:59:29;;;;;;;6.85;6.22;;;18.70;78.60;;;;;;4998920;28;20042;-68
2021/09/11 05:01:56;;;;;;;7.35;6.65;;;18.60;78.50;;;;;;4999526;28;20041;-68
2021/09/11 05:04:22;;;;;;;7.50;6.80;;;18.60;78.50;;;;;;4999819;28;20207;-68
2021/09/11 05:06:48;;;;;;;6.60;5.93;;;18.70;78.60;;;;;;4999967;28;20508;-68
2021/09/11 05:09:13;;;;;;;7.70;6.50;;;18.70;78.60;;;;;;4999035;28;20045;-68
2021/09/11 05:11:39;;;;;;;7.30;6.60;;;18.70;78.70;;;;;;5001053;28;20042;-67
2021/09/11 05:14:04;;;;;;;7.07;6.38;;;18.70;78.70;;;;;;4998669;28;20048;-67
2021/09/11 05:16:30;;;;;;;7.93;6.65;;;18.70;78.70;;;;;;4999766;28;20529;-67
2021/09/11 05:18:56;;;;;;;7.25;6.53;;;18.70;78.70;;;;;;5000121;28;20075;-67
2021/09/11 05:21:21;;;;;;;8.05;7.25;;;18.70;78.60;;;;;;5001150;28;20447;-67
2021/09/11 05:23:47;;;;;;;7.07;6.38;;;18.70;78.50;;;;;;4998337;28;20389;-67
2021/09/11 05:26:13;;;;;;;8.13;7.32;;;18.80;78.50;;;;;;5000207;28;20096;-67
2021/09/11 05:28:38;;;;;;;7.75;6.95;;;18.80;78.60;;;;;;5001100;28;20038;-68
2021/09/11 05:31:04;;;;;;;7.78;7.05;;;18.80;78.50;;;;;;5000474;28;20035;-69
2021/09/11 05:33:30;;;;;;;6.82;6.13;;;18.80;78.40;;;;;;4999916;28;20556;-68
2021/09/11 05:35:56;;;;;;;7.95;7.15;;;18.80;78.40;;;;;;4998987;28;20038;-68
2021/09/11 05:38:21;;;;;;;7.40;6.40;;;18.90;78.60;;;;;;4999946;28;20188;-67
2021/09/11 05:40:47;;;;;;;17.77;14.70;;;18.90;78.60;;;;;;4999097;28;20037;-67
2021/09/11 05:43:12;;;;;;;13.45;11.80;;;18.90;78.40;;;;;;4999322;28;20548;-68
2021/09/11 05:45:38;;;;;;;11.32;9.70;;;18.90;78.40;;;;;;4999986;28;20035;-66
2021/09/11 05:48:04;;;;;;;18.88;16.88;;;18.90;78.40;;;;;;5000514;28;20038;-66
2021/09/11 05:50:30;;;;;;;12.88;11.60;;;18.90;78.40;;;;;;4998344;28;20041;-67
2021/09/11 05:52:55;;;;;;;10.23;9.07;;;18.90;78.60;;;;;;4999465;28;20042;-66
2021/09/11 05:55:21;;;;;;;8.75;7.95;;;19.00;78.50;;;;;;4998051;28;20081;-68
2021/09/11 05:57:47;;;;;;;10.15;9.15;;;19.00;78.50;;;;;;4999499;28;20038;-67
2021/09/11 06:00:13;;;;;;;9.48;8.48;;;19.00;78.50;;;;;;4999564;28;20311;-67
2021/09/11 06:02:38;;;;;;;11.77;9.70;;;19.00;78.40;;;;;;4994459;28;20046;-67
2021/09/11 06:05:05;;;;;;;9.10;8.20;;;19.00;78.50;;;;;;4998672;28;20117;-66
2021/09/11 06:07:32;;;;;;;8.95;7.75;;;19.10;78.50;;;;;;4996978;28;20029;-67
2021/09/11 06:10:00;;;;;;;8.55;7.72;;;19.00;78.50;;;;;;4998065;28;20047;-67
2021/09/11 06:12:25;;;;;;;8.43;7.63;;;19.10;78.60;;;;;;4996665;28;20038;-67
2021/09/11 06:14:51;;;;;;;7.75;6.95;;;19.10;78.50;;;;;;4999421;28;20033;-66
2021/09/11 06:17:17;;;;;;;8.77;7.90;;;19.10;78.60;;;;;;4998756;28;20101;-67
2021/09/11 06:19:43;;;;;;;13.15;9.48;;;19.10;78.50;;;;;;4999124;28;20496;-67
2021/09/11 06:22:13;;;;;;;24.13;19.13;;;19.10;78.60;;;;;;4998164;28;20088;-68
2021/09/11 06:24:39;;;;;;;12.55;11.25;;;19.10;78.80;;;;;;4997658;28;20038;-66
2021/09/11 06:27:06;;;;;;;10.40;9.32;;;19.10;78.80;;;;;;4998132;28;20579;-67
2021/09/11 06:29:32;;;;;;;9.30;8.38;;;19.10;78.90;;;;;;4998579;28;20046;-63
2021/09/11 06:31:57;;;;;;;10.05;9.10;;;19.10;78.90;;;;;;4997959;28;20033;-66
2021/09/11 06:34:23;;;;;;;12.10;10.90;;;19.10;78.90;;;;;;4997694;28;20050;-65
2021/09/11 06:36:49;;;;;;;12.05;10.02;;;19.10;78.80;;;;;;4998553;28;20109;-66
2021/09/11 06:39:15;;;;;;;8.70;7.90;;;19.10;78.70;;;;;;4996881;28;20037;-66
2021/09/11 06:41:40;;;;;;;10.40;8.35;;;19.10;78.70;;;;;;4999027;28;20512;-66
2021/09/11 06:44:06;;;;;;;10.82;9.27;;;19.20;78.70;;;;;;4998157;28;20034;-67
2021/09/11 06:46:32;;;;;;;11.77;10.55;;;19.20;78.70;;;;;;4997586;28;20402;-66
2021/09/11 06:48:58;;;;;;;11.02;9.40;;;19.20;79.10;;;;;;4998645;28;20519;-66
2021/09/11 06:51:23;;;;;;;11.02;9.15;;;19.20;79.00;;;;;;4998302;28;20269;-67
2021/09/11 06:53:50;;;;;;;10.77;9.38;;;19.20;78.90;;;;;;4998095;28;20436;-67
2021/09/11 06:56:15;;;;;;;8.48;7.57;;;19.20;78.90;;;;;;4996725;28;20041;-67
2021/09/11 06:58:41;;;;;;;8.50;7.70;;;19.20;79.30;;;;;;4998084;28;20030;-66
2021/09/11 07:01:07;;;;;;;9.77;8.77;;;19.20;79.30;;;;;;4998584;28;20065;-67
2021/09/11 07:03:32;;;;;;;10.70;9.07;;;19.20;79.40;;;;;;4999260;28;20612;-67
2021/09/11 07:06:02;;;;;;;9.90;8.93;;;19.20;79.30;;;;;;4999532;28;20535;-67
2021/09/11 07:08:28;;;;;;;10.30;8.23;;;19.30;79.50;;;;;;4998756;28;20030;-66
2021/09/11 07:10:54;;;;;;;12.80;9.75;;;19.30;79.40;;;;;;4997309;28;20179;-66
2021/09/11 07:13:19;;;;;;;8.25;7.45;;;19.20;79.40;;;;;;4996114;28;20041;-67
2021/09/11 07:15:45;;;;;;;10.32;9.10;;;19.30;79.50;;;;;;4998785;28;20026;-67
2021/09/11 07:18:10;;;;;;;10.55;8.70;;;19.30;79.50;;;;;;4999144;28;20125;-67
2021/09/11 07:20:36;;;;;;;10.07;8.13;;;19.30;79.60;;;;;;5001534;28;20034;-66
2021/09/11 07:23:02;;;;;;;7.80;7.00;;;19.30;79.70;;;;;;5001538;28;20026;-65
2021/09/11 07:25:27;;;;;;;15.95;11.88;;;19.30;79.80;;;;;;5002591;28;20116;-67
2021/09/11 07:27:53;;;;;;;9.82;8.38;;;19.40;79.90;;;;;;5001974;28;20042;-66
2021/09/11 07:30:19;;;;;;;19.85;17.58;;;19.40;79.90;;;;;;5002680;28;20038;-65
2021/09/11 07:32:45;;;;;;;9.82;8.85;;;19.40;79.70;;;;;;5007970;28;20068;-66
2021/09/11 07:35:11;;;;;;;10.40;9.40;;;19.40;79.60;;;;;;5002036;28;20053;-67
2021/09/11 07:37:36;;;;;;;8.52;7.47;;;19.40;79.60;;;;;;5001996;28;20041;-67
2021/09/11 07:40:03;;;;;;;8.80;7.95;;;19.40;79.90;;;;;;5004168;28;20532;-66
2021/09/11 07:42:28;;;;;;;10.05;8.90;;;19.40;80.00;;;;;;5003007;28;20563;-67
2021/09/11 07:44:54;;;;;;;9.93;8.38;;;19.40;80.20;;;;;;5001072;28;20046;-66
2021/09/11 07:47:19;;;;;;;8.40;7.57;;;19.40;80.20;;;;;;5002270;28;20065;-66
2021/09/11 07:49:46;;;;;;;8.10;7.30;;;19.40;80.20;;;;;;5002417;28;20034;-67
2021/09/11 07:52:11;;;;;;;8.43;7.55;;;19.50;80.30;;;;;;5000861;28;20034;-67
2021/09/11 07:54:37;;;;;;;11.32;7.78;;;19.50;80.10;;;;;;5001330;28;20176;-64
2021/09/11 07:57:03;;;;;;;10.05;7.88;;;19.50;80.10;;;;;;5000658;28;20069;-67
2021/09/11 07:59:29;;;;;;;8.05;7.25;;;19.50;80.10;;;;;;4998717;28;20124;-67
2021/09/11 08:01:54;;;;;;;8.07;7.28;;;19.50;80.10;;;;;;5000631;28;20034;-67
2021/09/11 08:04:20;;;;;;;8.95;8.05;;;19.50;80.10;;;;;;5001659;28;20599;-66
2021/09/11 08:06:46;;;;;;;10.65;8.02;;;19.50;80.10;;;;;;5000368;28;20045;-68
2021/09/11 08:09:11;;;;;;;14.57;11.57;;;19.50;80.20;;;;;;5000970;28;20027;-67
2021/09/11 08:11:37;;;;;;;9.88;8.77;;;19.50;80.50;;;;;;4999064;28;20073;-66
2021/09/11 08:14:02;;;;;;;12.25;8.45;;;19.50;80.30;;;;;;5000791;28;20172;-67
2021/09/11 08:16:28;;;;;;;10.43;9.35;;;19.50;80.30;;;;;;4999351;28;20034;-66
2021/09/11 08:18:54;;;;;;;10.93;9.82;;;19.60;80.50;;;;;;4999917;28;20046;-67
2021/09/11 08:21:20;;;;;;;10.63;9.52;;;19.60;80.30;;;;;;5001244;28;20173;-67
2021/09/11 08:23:46;;;;;;;9.57;8.68;;;19.60;80.30;;;;;;4999986;28;20068;-66
2021/09/11 08:26:11;;;;;;;11.23;9.63;;;19.70;80.50;;;;;;5001208;28;20362;-64
2021/09/11 08:28:37;;;;;;;10.98;9.85;;;19.70;80.50;;;;;;4999291;28;20030;-67
2021/09/11 08:31:03;;;;;;;12.23;11.02;;;19.80;80.50;;;;;;4999932;28;20046;-67
2021/09/11 08:33:29;;;;;;;10.68;9.27;;;19.80;80.40;;;;;;5000124;28;20042;-67
2021/09/11 08:35:55;;;;;;;12.85;11.05;;;19.90;80.30;;;;;;5000382;28;20057;-67
2021/09/11 08:38:21;;;;;;;10.85;9.75;;;20.00;80.30;;;;;;5001457;28;20582;-67
2021/09/11 08:40:46;;;;;;;11.70;10.02;;;20.00;80.00;;;;;;5000278;28;20488;-67
2021/09/11 08:43:17;;;;;;;10.80;9.70;;;20.10;79.80;;;;;;4999843;28;20083;-67
2021/09/11 08:45:42;;;;;;;13.07;10.43;;;20.10;79.70;;;;;;5000738;28;20034;-66
2021/09/11 08:48:08;;;;;;;10.10;8.68;;;20.20;79.70;;;;;;5000258;28;20505;-67
2021/09/11 08:50:34;;;;;;;9.85;8.52;;;20.20;79.40;;;;;;4999925;28;20496;-64
2021/09/11 08:52:59;;;;;;;9.70;8.70;;;20.30;79.20;;;;;;5000947;28;20061;-67
2021/09/11 08:55:25;;;;;;;9.15;8.25;;;20.40;78.80;;;;;;5000396;28;20073;-68
2021/09/11 08:58:04;;;;;;;12.23;8.93;;;20.40;78.60;;;;;;4999763;28;20572;-67
2021/09/11 09:00:36;;;;;;;15.02;11.32;;;20.40;78.90;;;;;;4998874;28;20577;-67
2021/09/11 09:03:21;;;;;;;11.70;10.05;;;20.50;78.70;;;;;;5000003;28;20038;-68
2021/09/11 09:05:47;;;;;;;9.10;8.00;;;20.50;78.80;;;;;;4999122;28;20026;-68
2021/09/11 09:08:12;;;;;;;9.10;7.80;;;20.60;78.90;;;;;;4999525;28;20505;-67
2021/09/11 09:10:38;;;;;;;9.18;7.25;;;20.70;78.70;;;;;;4999431;28;20452;-67
2021/09/11 09:13:03;;;;;;;7.70;6.90;;;20.80;78.20;;;;;;4999562;28;20026;-68
2021/09/11 09:15:31;;;;;;;8.75;7.68;;;20.90;78.10;;;;;;4999551;28;20092;-68
2021/09/11 09:17:57;;;;;;;7.30;6.60;;;21.00;77.90;;;;;;4998257;28;20512;-68
2021/09/11 09:20:27;;;;;;;7.50;6.80;;;21.00;77.60;;;;;;4999447;28;20030;-68
2021/09/11 09:22:59;;;;;;;7.05;6.22;;;21.10;77.50;;;;;;4997296;28;20441;-69
2021/09/11 09:25:36;;;;;;;6.47;5.45;;;21.20;76.90;;;;;;5000282;28;20404;-68
2021/09/11 09:28:15;;;;;;;6.10;5.50;;;21.30;76.50;;;;;;4999729;28;20034;-68
2021/09/11 09:30:49;;;;;;;7.00;6.30;;;21.30;76.20;;;;;;5000284;28;20197;-68
2021/09/11 09:33:19;;;;;;;6.10;5.55;;;21.40;76.00;;;;;;4999494;28;20038;-69
2021/09/11 09:35:45;;;;;;;6.18;5.60;;;21.40;75.60;;;;;;5013626;28;20029;-68
2021/09/11 09:38:12;;;;;;;6.22;5.63;;;21.40;75.50;;;;;;4999436;28;20041;-69
2021/09/11 09:40:39;;;;;;;6.85;5.75;;;21.40;75.50;;;;;;4999536;28;20061;-67
2021/09/11 09:43:06;;;;;;;6.80;5.40;;;21.50;75.50;;;;;;4999563;28;20440;-69
2021/09/11 09:45:33;;;;;;;6.50;5.90;;;21.50;75.50;;;;;;5000150;28;20023;-67
2021/09/11 09:48:06;;;;;;;6.05;5.45;;;21.60;75.10;;;;;;4999401;28;20509;-67
2021/09/11 09:50:38;;;;;;;6.03;5.13;;;21.50;75.00;;;;;;4999278;28;20038;-66
2021/09/11 09:53:04;;;;;;;5.85;5.25;;;21.60;74.60;;;;;;4999045;28;20065;-67
2021/09/11 09:55:30;;;;;;;6.32;4.68;;;21.60;73.80;;;;;;5000646;28;20416;-68
2021/09/11 09:57:56;;;;;;;5.00;4.50;;;21.70;73.50;;;;;;4999469;28;20045;-68
2021/09/11 10:00:23;;;;;;;5.28;4.18;;;21.70;73.60;;;;;;4998639;28;20042;-69
2021/09/11 10:02:49;;;;;;;4.10;3.70;;;21.70;72.80;;;;;;4994504;28;20034;-68
2021/09/11 10:05:18;;;;;;;3.65;3.35;;;21.70;72.60;;;;;;4979329;28;20049;-68
2021/09/11 10:07:55;;;;;;;3.95;2.67;;;21.70;72.10;;;;;;4978955;28;20045;-68
2021/09/11 10:10:30;;;;;;;5.88;3.67;;;21.70;71.70;;;;;;4978876;28;20062;-69
2021/09/11 10:13:11;;;;;;;3.80;3.45;;;21.70;71.90;;;;;;4999060;28;20084;-68
2021/09/11 10:16:00;;;;;;;5.88;3.83;;;21.80;71.80;;;;;;4999718;28;20031;-69
2021/09/11 10:18:35;;;;;;;5.13;4.50;;;21.80;71.80;;;;;;4999082;28;20036;-68
2021/09/11 10:21:13;;;;;;;;;;;21.80;71.60;;;;;;4999294;28;20058;-68
2021/09/11 10:23:39;;;;;;;3.30;3.00;;;21.90;71.80;;;;;;4998906;28;19945;-68
2021/09/11 10:26:05;;;;;;;3.95;3.28;;;21.90;72.10;;;;;;4997401;28;20565;-69
2021/09/11 10:28:31;;;;;;;3.63;2.83;;;21.90;72.10;;;;;;4998535;28;20047;-67
2021/09/11 10:31:05;;;;;;;4.00;3.53;;;22.00;72.10;;;;;;4999179;28;20046;-68
2021/09/11 10:33:46;;;;;;;4.28;3.65;;;22.00;72.00;;;;;;4998875;28;20046;-68
2021/09/11 10:36:23;;;;;;;4.68;4.07;;;22.10;72.00;;;;;;5013955;28;20291;-67
2021/09/11 10:38:51;;;;;;;4.03;3.60;;;22.20;71.80;;;;;;4998645;28;20408;-71
2021/09/11 10:41:18;;;;;;;4.10;3.72;;;22.20;71.50;;;;;;4999485;28;20034;-68
2021/09/11 10:44:06;;;;;;;3.92;3.53;;;22.30;71.60;;;;;;4998118;28;20508;-68
2021/09/11 10:46:54;;;;;;;4.10;3.70;;;22.30;71.10;;;;;;4998489;28;20034;-68
2021/09/11 10:49:28;;;;;;;3.92;3.53;;;22.40;71.30;;;;;;4998495;28;20953;-68
2021/09/11 10:52:11;;;;;;;3.90;3.28;;;22.50;71.00;;;;;;4998274;28;20031;-68
2021/09/11 10:54:42;;;;;;;4.28;2.90;;;22.60;70.70;;;;;;4999827;28;20038;-68
2021/09/11 10:57:16;;;;;;;3.88;2.90;;;22.70;69.60;;;;;;5001496;28;20042;-68
2021/09/11 10:59:49;;;;;;;6.10;3.20;;;22.70;68.60;;;;;;5002483;28;20038;-68
2021/09/11 11:02:33;;;;;;;3.65;3.17;;;22.70;69.10;;;;;;5001692;28;20037;-68
2021/09/11 11:05:10;;;;;;;3.05;2.85;;;22.80;70.10;;;;;;5003435;28;20063;-69
2021/09/11 11:07:44;;;;;;;3.05;2.85;;;22.90;69.30;;;;;;5002065;28;20034;-71
2021/09/11 11:10:12;;;;;;;3.45;3.00;;;23.00;69.20;;;;;;4999432;28;20034;-71
2021/09/11 11:12:41;;;;;;;3.10;2.90;;;23.10;68.80;;;;;;4998800;28;20121;-70
2021/09/11 11:15:15;;;;;;;2.80;2.60;;;23.20;67.50;;;;;;5002305;28;20042;-70
2021/09/11 11:17:46;;;;;;;3.17;2.90;;;23.20;66.80;;;;;;5001243;28;20034;-70
2021/09/11 11:20:12;;;;;;;3.78;2.55;;;23.20;66.70;;;;;;5002262;28;20042;-71
2021/09/11 11:22:40;;;;;;;2.78;2.58;;;23.30;67.10;;;;;;5000712;28;20060;-70
2021/09/11 11:25:27;;;;;;;3.33;2.40;;;23.30;67.10;;;;;;5000826;28;20045;-70
2021/09/11 11:27:52;;;;;;;2.20;2.10;;;23.40;65.20;;;;;;5000966;28;20034;-70
2021/09/11 11:30:20;;;;;;;2.13;1.92;;;23.40;66.00;;;;;;4999873;28;20038;-70
2021/09/11 11:32:46;;;;;;;2.05;1.92;;;23.40;64.90;;;;;;5000517;28;20117;-71
2021/09/11 11:35:14;;;;;;;3.83;2.20;;;23.40;64.60;;;;;;5002448;28;20117;-70
2021/09/11 11:37:40;;;;;;;2.78;2.00;;;23.40;64.40;;;;;;5001832;28;20034;-70
2021/09/11 11:40:11;;;;;;;1.45;1.35;;;23.40;64.00;;;;;;5014117;28;20374;-70
2021/09/11 11:42:38;;;;;;;2.35;1.60;;;23.40;64.00;;;;;;5000262;28;20072;-71
2021/09/11 11:45:07;;;;;;;1.70;1.60;;;23.40;64.40;;;;;;5001231;28;20045;-71
2021/09/11 11:47:44;;;;;;;1.73;1.63;;;23.40;63.00;;;;;;5000343;28;20467;-70
2021/09/11 11:50:19;;;;;;;1.95;1.40;;;23.40;63.20;;;;;;5001756;28;20034;-71
2021/09/11 11:52:50;;;;;;;1.10;1.00;;;23.50;63.00;;;;;;5001983;28;20034;-71
2021/09/11 11:55:20;;;;;;;1.52;1.30;;;23.50;63.30;;;;;;5000691;28;20038;-71
2021/09/11 11:57:45;;;;;;;1.30;1.20;;;23.60;63.00;;;;;;4999731;28;20030;-71
2021/09/11 12:00:12;;;;;;;1.40;1.30;;;23.70;62.60;;;;;;4997911;28;20497;-71
2021/09/11 12:02:40;;;;;;;1.27;1.17;;;23.70;62.70;;;;;;4997233;28;20042;-70
2021/09/11 12:05:18;;;;;;;4.60;1.20;;;23.80;62.80;;;;;;5010648;28;20046;-71
2021/09/11 12:08:08;;;;;;;1.25;1.15;;;23.90;62.20;;;;;;4997780;28;20064;-70
2021/09/11 12:10:34;;;;;;;1.30;1.13;;;24.00;61.00;;;;;;4996352;28;20420;-71
2021/09/11 12:13:07;;;;;;;1.75;1.50;;;24.10;61.90;;;;;;4997323;28;20034;-71
2021/09/11 12:15:34;;;;;;;1.13;1.02;;;24.10;61.50;;;;;;4997068;28;20030;-70
2021/09/11 12:18:10;;;;;;;1.33;1.23;;;24.20;61.50;;;;;;4997499;28;20446;-71
2021/09/11 12:20:50;;;;;;;1.30;1.20;;;24.20;61.00;;;;;;4996819;28;20062;-71
2021/09/11 12:23:20;;;;;;;1.45;1.33;;;24.30;60.20;;;;;;4998723;28;20172;-71
2021/09/11 12:25:55;;;;;;;1.55;1.30;;;24.30;60.20;;;;;;5016760;28;20026;-71
2021/09/11 12:28:38;;;;;;;1.35;1.02;;;24.30;60.50;;;;;;4999480;28;20534;-71
2021/09/11 12:31:18;;;;;;;1.58;1.20;;;24.40;59.20;;;;;;4995483;28;20088;-71
2021/09/11 12:33:51;;;;;;;2.10;1.20;;;24.40;59.90;;;;;;4983565;28;20042;-70
2021/09/11 12:36:36;;;;;;;1.20;1.10;;;24.40;59.10;;;;;;4980443;28;20035;-71
2021/09/11 12:39:27;;;;;;;1.42;1.10;;;24.40;58.80;;;;;;5002337;28;20121;-70
2021/09/11 12:41:54;;;;;;;1.83;1.10;;;24.40;58.80;;;;;;5002241;28;20077;-70
2021/09/11 12:44:22;;;;;;;1.50;0.95;;;24.40;59.20;;;;;;5000450;28;20026;-71
2021/09/11 12:46:55;;;;;;;1.20;1.10;;;24.40;59.00;;;;;;5001251;28;20523;-68